Time;durP1;ratioP1;P1;durP2;ratioP2;P2;SDS_P1;SDS_P2;PMS_P1;PMS_P2;Temp;Humidity;BMP_temperature;BMP_pressure;BME280_temperature;BME280_humidity;BME280_pressure;Samples;Min_cycle;Max_cycle;Signal;HPM_P1;HPM_P2
2020/12/11 00:00:18;;;;;;;23.10;15.77;;;;;;;4.54;60.29;95509.66;5060818;28;20586;-66
2020/12/11 00:02:44;;;;;;;28.60;16.07;;;;;;;4.34;60.90;95506.53;5073403;28;20425;-67
2020/12/11 00:05:11;;;;;;;22.77;15.70;;;;;;;4.46;60.32;95508.69;5073229;28;20463;-67
2020/12/11 00:07:38;;;;;;;22.60;15.37;;;;;;;4.33;61.08;95507.50;5073214;28;20198;-67
2020/12/11 00:10:05;;;;;;;23.87;16.30;;;;;;;4.51;60.33;95505.63;5069511;28;20424;-65
2020/12/11 00:12:31;;;;;;;24.80;16.93;;;;;;;4.50;60.58;95492.81;5064080;28;20444;-66
2020/12/11 00:14:57;;;;;;;20.10;13.83;;;;;;;4.32;60.42;95498.09;5074602;28;20448;-68
2020/12/11 00:17:24;;;;;;;23.40;15.40;;;;;;;4.42;60.05;95507.34;5074353;28;20420;-67
2020/12/11 00:19:50;;;;;;;22.97;15.30;;;;;;;4.27;60.99;95506.34;5073117;28;20433;-65
2020/12/11 00:22:16;;;;;;;23.70;14.13;;;;;;;4.20;61.09;95505.31;5072867;28;20951;-65
2020/12/11 00:24:42;;;;;;;22.27;16.03;;;;;;;3.85;62.03;95510.44;5074151;28;20274;-66
2020/12/11 00:27:08;;;;;;;20.00;14.47;;;;;;;4.24;61.45;95494.47;5072321;28;20208;-65
2020/12/11 00:29:34;;;;;;;21.53;14.70;;;;;;;4.52;60.62;95502.06;5073782;28;20783;-65
2020/12/11 00:32:04;;;;;;;22.90;15.37;;;;;;;4.47;60.77;95496.53;5072783;28;20445;-67
2020/12/11 00:34:33;;;;;;;20.73;14.43;;;;;;;4.54;60.09;95504.47;5072462;28;20202;-67
2020/12/11 00:37:00;;;;;;;18.40;13.50;;;;;;;4.55;60.41;95504.34;5073779;28;20454;-66
2020/12/11 00:39:26;;;;;;;17.67;13.27;;;;;;;4.45;60.39;95508.84;5072743;28;20440;-67
2020/12/11 00:41:52;;;;;;;18.37;13.60;;;;;;;4.28;61.37;95505.38;5063067;28;20442;-66
2020/12/11 00:44:17;;;;;;;18.30;13.40;;;;;;;4.25;61.41;95510.84;5072386;28;20535;-66
2020/12/11 00:46:43;;;;;;;19.23;13.33;;;;;;;4.22;61.07;95499.00;5073251;28;20556;-66
2020/12/11 00:49:09;;;;;;;18.03;14.30;;;;;;;4.27;60.99;95493.38;5056777;28;20309;-68
2020/12/11 00:51:34;;;;;;;19.33;14.50;;;;;;;4.38;59.91;95484.47;5072498;28;20210;-67
2020/12/11 00:54:00;;;;;;;17.00;13.53;;;;;;;4.44;60.29;95476.09;5073840;28;20513;-65
2020/12/11 00:56:26;;;;;;;17.70;12.77;;;;;;;4.32;60.21;95474.75;5072985;28;20206;-65
2020/12/11 00:58:52;;;;;;;17.73;13.20;;;;;;;4.46;59.71;95471.56;5073577;28;20193;-64
2020/12/11 01:01:17;;;;;;;16.90;13.17;;;;;;;4.37;59.48;95467.28;5072529;28;20284;-65
2020/12/11 01:03:43;;;;;;;19.57;15.03;;;;;;;4.20;60.47;95463.81;5073374;28;20179;-67
2020/12/11 01:06:09;;;;;;;15.80;12.50;;;;;;;4.11;60.44;95453.41;5056251;28;20202;-66
2020/12/11 01:08:35;;;;;;;17.57;13.27;;;;;;;4.10;60.74;95459.56;5069740;28;20244;-66
2020/12/11 01:11:01;;;;;;;17.30;13.00;;;;;;;3.84;61.59;95457.81;5071900;28;20641;-66
2020/12/11 01:13:27;;;;;;;17.70;14.10;;;;;;;3.97;60.56;95457.38;5061273;28;20186;-66
2020/12/11 01:15:53;;;;;;;19.03;13.30;;;;;;;3.97;60.84;95446.22;5066522;28;20464;-65
2020/12/11 01:18:18;;;;;;;17.53;13.00;;;;;;;3.97;60.93;95446.22;5072582;28;20190;-66
2020/12/11 01:20:44;;;;;;;19.23;13.73;;;;;;;4.10;60.86;95438.00;5071555;28;20539;-65
2020/12/11 01:23:10;;;;;;;19.87;14.97;;;;;;;3.96;61.54;95436.81;5071668;28;20174;-66
2020/12/11 01:25:36;;;;;;;20.83;14.13;;;;;;;4.05;61.01;95427.31;5073182;28;20182;-66
2020/12/11 01:28:01;;;;;;;17.30;13.50;;;;;;;3.90;60.77;95417.50;5072677;28;20335;-65
2020/12/11 01:30:27;;;;;;;16.63;13.00;;;;;;;3.89;61.32;95415.88;5072263;28;20266;-65
2020/12/11 01:32:53;;;;;;;18.57;12.80;;;;;;;3.99;61.29;95411.38;5072865;28;20195;-66
2020/12/11 01:35:18;;;;;;;18.53;13.53;;;;;;;3.82;61.26;95401.94;5073747;28;20208;-65
2020/12/11 01:37:44;;;;;;;18.73;12.30;;;;;;;3.86;60.44;95400.63;5073364;28;20698;-66
2020/12/11 01:40:10;;;;;;;17.57;12.97;;;;;;;3.86;60.75;95397.22;5073895;28;20183;-67
2020/12/11 01:42:36;;;;;;;17.17;13.30;;;;;;;3.80;60.87;95399.47;5070243;28;20213;-67
2020/12/11 01:45:03;;;;;;;16.57;12.40;;;;;;;3.58;61.85;95400.81;5075834;28;20552;-66
2020/12/11 01:47:29;;;;;;;15.60;12.43;;;;;;;3.60;61.46;95398.06;5073365;28;20232;-66
2020/12/11 01:49:55;;;;;;;19.20;14.33;;;;;;;3.69;61.35;95402.31;5072704;28;20915;-65
2020/12/11 01:52:21;;;;;;;16.97;12.50;;;;;;;3.68;61.67;95405.88;5073004;28;20453;-65
2020/12/11 01:54:47;;;;;;;18.67;13.80;;;;;;;3.83;61.66;95412.13;5072046;28;20448;-65
2020/12/11 01:57:40;;;;;;;17.70;14.00;;;;;;;3.81;61.86;95405.47;5072805;28;20269;-67
2020/12/11 02:00:08;;;;;;;20.07;13.90;;;;;;;3.61;62.03;95404.88;5071896;28;20425;-66
2020/12/11 02:02:38;;;;;;;20.43;15.00;;;;;;;3.74;61.65;95400.09;5071772;28;20437;-66
2020/12/11 02:05:11;;;;;;;19.63;14.20;;;;;;;3.57;62.17;95382.81;5072274;28;20460;-66
2020/12/11 02:07:37;;;;;;;19.87;13.90;;;;;;;3.77;62.44;95384.25;5071204;28;20425;-65
2020/12/11 02:10:04;;;;;;;18.60;14.10;;;;;;;3.60;62.33;95385.91;5067444;28;20449;-64
2020/12/11 02:12:30;;;;;;;20.17;14.37;;;;;;;3.81;62.14;95379.56;5060723;28;20451;-66
2020/12/11 02:14:55;;;;;;;18.23;13.20;;;;;;;3.72;62.01;95380.50;5072020;28;20543;-66
2020/12/11 02:17:26;;;;;;;20.27;14.30;;;;;;;3.73;62.04;95380.34;5070723;28;20182;-66
2020/12/11 02:19:56;;;;;;;20.00;14.27;;;;;;;3.86;61.83;95374.72;5068869;28;20186;-65
2020/12/11 02:22:22;;;;;;;20.60;14.40;;;;;;;3.73;61.68;95366.56;5066184;28;20441;-66
2020/12/11 02:24:49;;;;;;;18.40;13.83;;;;;;;3.46;62.54;95366.59;5072570;28;20467;-65
2020/12/11 02:27:15;;;;;;;21.37;14.57;;;;;;;3.42;62.94;95365.25;5071909;28;20421;-65
2020/12/11 02:29:40;;;;;;;18.77;13.90;;;;;;;3.57;62.98;95354.34;5072180;28;20432;-64
2020/12/11 02:32:06;;;;;;;22.33;15.33;;;;;;;3.62;62.54;95345.13;5071098;28;20206;-66
2020/12/11 02:34:32;;;;;;;23.63;14.83;;;;;;;3.45;63.23;95333.88;5058432;28;20212;-66
2020/12/11 02:37:02;;;;;;;21.87;14.37;;;;;;;3.45;63.08;95327.91;5068896;28;20217;-66
2020/12/11 02:39:28;;;;;;;20.53;15.10;;;;;;;3.16;63.88;95329.81;5070773;28;20186;-67
2020/12/11 02:41:53;;;;;;;20.70;14.90;;;;;;;3.34;63.59;95332.34;5060838;28;20442;-66
2020/12/11 02:44:19;;;;;;;21.13;15.80;;;;;;;3.42;63.00;95323.03;5071491;28;20432;-65
2020/12/11 02:46:45;;;;;;;22.00;15.73;;;;;;;3.45;63.12;95318.34;5071232;28;20677;-66
2020/12/11 02:49:11;;;;;;;23.17;15.87;;;;;;;3.42;62.82;95312.66;5070707;28;20443;-66
2020/12/11 02:51:37;;;;;;;20.37;14.63;;;;;;;3.29;63.05;95316.47;5072103;28;20231;-66
2020/12/11 02:54:02;;;;;;;23.07;15.23;;;;;;;3.34;63.40;95292.72;5072513;28;20218;-65
2020/12/11 02:56:28;;;;;;;19.90;14.80;;;;;;;3.27;63.64;95282.16;5071998;28;20741;-67
2020/12/11 02:58:54;;;;;;;24.17;17.07;;;;;;;3.31;63.42;95270.53;5072570;28;20211;-66
2020/12/11 03:01:20;;;;;;;26.90;16.40;;;;;;;2.98;65.38;95272.13;5071676;28;20205;-67
2020/12/11 03:03:45;;;;;;;23.90;16.27;;;;;;;3.08;64.90;95270.25;5072592;28;20245;-66
2020/12/11 03:06:11;;;;;;;22.17;15.70;;;;;;;3.02;65.04;95273.44;5064584;28;20177;-67
2020/12/11 03:08:37;;;;;;;22.40;15.77;;;;;;;3.09;64.59;95278.84;5070739;28;20553;-67
2020/12/11 03:11:02;;;;;;;23.60;15.93;;;;;;;3.00;65.26;95293.50;5069777;28;20211;-67
2020/12/11 03:13:28;;;;;;;23.50;15.90;;;;;;;3.03;65.24;95299.16;5055276;28;20194;-67
2020/12/11 03:15:54;;;;;;;26.93;17.30;;;;;;;2.94;65.77;95284.56;5072668;28;20206;-66
2020/12/11 03:18:20;;;;;;;28.57;17.70;;;;;;;2.94;66.00;95281.16;5057749;28;20186;-66
2020/12/11 03:20:45;;;;;;;23.83;16.97;;;;;;;3.02;65.51;95278.63;5073822;28;20285;-68
2020/12/11 03:23:11;;;;;;;26.23;16.47;;;;;;;2.95;65.95;95280.19;5075719;28;20183;-67
2020/12/11 03:25:37;;;;;;;27.00;17.90;;;;;;;3.08;65.23;95275.41;5073561;28;20669;-66
2020/12/11 03:28:02;;;;;;;24.93;17.07;;;;;;;3.11;65.40;95274.28;5074582;28;20388;-64
2020/12/11 03:30:29;;;;;;;24.50;16.80;;;;;;;3.00;65.60;95273.59;5074966;28;20182;-67
2020/12/11 03:32:55;;;;;;;26.07;17.17;;;;;;;2.84;66.18;95271.72;5074401;28;20240;-67
2020/12/11 03:35:20;;;;;;;28.70;17.33;;;;;;;3.05;65.58;95270.53;5073465;28;20460;-66
2020/12/11 03:37:46;;;;;;;25.73;16.57;;;;;;;3.09;65.34;95263.31;5073061;28;20424;-67
2020/12/11 03:40:13;;;;;;;29.17;17.90;;;;;;;2.95;65.64;95260.31;5067147;28;20182;-66
2020/12/11 03:42:39;;;;;;;26.70;17.13;;;;;;;2.74;66.31;95252.88;5064434;28;20242;-67
2020/12/11 03:45:05;;;;;;;28.03;17.73;;;;;;;2.57;66.67;95246.78;5065519;28;20915;-67
2020/12/11 03:47:31;;;;;;;27.63;17.30;;;;;;;2.82;66.35;95237.41;5074624;28;20653;-67
2020/12/11 03:49:58;;;;;;;28.63;17.93;;;;;;;2.90;65.47;95232.28;5074662;28;20424;-66
2020/12/11 03:52:28;;;;;;;29.37;18.40;;;;;;;2.96;65.49;95217.13;5073908;28;20456;-67
2020/12/11 03:54:53;;;;;;;29.07;18.67;;;;;;;2.99;65.49;95211.63;5074441;28;20554;-68
2020/12/11 03:57:19;;;;;;;30.33;18.60;;;;;;;2.90;65.19;95201.22;5074441;28;20420;-67
2020/12/11 03:59:45;;;;;;;31.73;18.80;;;;;;;2.98;65.05;95203.03;5074305;28;20194;-65
2020/12/11 04:02:12;;;;;;;27.40;17.53;;;;;;;2.91;64.75;95196.88;5074819;28;20224;-66
2020/12/11 04:04:42;;;;;;;29.20;18.33;;;;;;;2.91;64.76;95197.69;5074275;28;20209;-67
2020/12/11 04:07:09;;;;;;;29.43;18.40;;;;;;;2.83;64.99;95194.25;5073761;28;20421;-67
2020/12/11 04:09:34;;;;;;;31.10;18.97;;;;;;;2.89;64.78;95191.88;5071208;28;20444;-66
2020/12/11 04:12:00;;;;;;;32.23;18.80;;;;;;;2.83;64.85;95187.28;5063132;28;20451;-66
2020/12/11 04:14:26;;;;;;;29.97;18.87;;;;;;;2.88;64.65;95177.31;5073592;28;20190;-67
2020/12/11 04:16:52;;;;;;;30.93;19.90;;;;;;;2.88;64.79;95161.78;5072595;28;20265;-66
2020/12/11 04:19:17;;;;;;;32.27;19.17;;;;;;;2.92;64.65;95155.31;5074272;28;20906;-66
2020/12/11 04:21:48;;;;;;;28.80;18.80;;;;;;;2.88;64.32;95156.59;5074029;28;20510;-67
2020/12/11 04:24:14;;;;;;;29.20;18.37;;;;;;;2.88;64.51;95155.78;5057224;28;20189;-67
2020/12/11 04:26:39;;;;;;;32.33;18.67;;;;;;;2.58;65.18;95161.28;5072072;28;20790;-67
2020/12/11 04:29:05;;;;;;;33.60;20.13;;;;;;;2.69;65.27;95162.81;5073395;28;20190;-66
2020/12/11 04:31:31;;;;;;;33.10;18.73;;;;;;;2.72;64.86;95162.47;5072399;28;20202;-67
2020/12/11 04:33:56;;;;;;;33.73;18.60;;;;;;;2.61;65.59;95163.56;5072134;28;20282;-66
2020/12/11 04:36:22;;;;;;;36.93;21.07;;;;;;;2.54;65.49;95170.31;5072839;28;20715;-66
2020/12/11 04:38:48;;;;;;;30.50;18.33;;;;;;;2.65;65.07;95160.69;5072005;28;20217;-66
2020/12/11 04:41:15;;;;;;;32.60;19.30;;;;;;;2.59;65.20;95167.25;5069560;28;20229;-66
2020/12/11 04:43:41;;;;;;;31.77;19.43;;;;;;;2.59;65.55;95170.66;5063193;28;20194;-67
2020/12/11 04:46:07;;;;;;;33.03;18.93;;;;;;;2.52;65.31;95174.81;5072766;28;20939;-68
2020/12/11 04:48:34;;;;;;;37.77;21.50;;;;;;;2.42;65.32;95168.94;5067665;28;20440;-67
2020/12/11 04:51:02;;;;;;;35.70;20.00;;;;;;;2.48;65.96;95162.34;5070466;28;20528;-67
2020/12/11 04:53:35;;;;;;;36.63;20.37;;;;;;;2.59;65.45;95157.75;5073681;28;20429;-66
2020/12/11 04:56:10;;;;;;;32.27;18.70;;;;;;;2.58;65.60;95166.47;5073056;28;20464;-66
2020/12/11 04:58:36;;;;;;;36.00;20.30;;;;;;;2.51;65.43;95157.69;5052609;28;20442;-67
2020/12/11 05:01:04;;;;;;;31.10;19.20;;;;;;;2.17;66.03;95153.25;5070131;28;21147;-67
2020/12/11 05:03:31;;;;;;;32.73;19.20;;;;;;;2.40;65.72;95147.59;5071435;28;20220;-67
2020/12/11 05:05:57;;;;;;;35.40;19.87;;;;;;;2.39;65.77;95138.22;5071944;28;20898;-66
2020/12/11 05:08:23;;;;;;;32.07;19.00;;;;;;;2.33;65.85;95126.72;5072588;28;20463;-67
2020/12/11 05:10:49;;;;;;;34.00;19.10;;;;;;;2.26;66.25;95128.28;5070427;28;20250;-67
2020/12/11 05:13:23;;;;;;;34.10;19.27;;;;;;;2.36;65.51;95125.59;5073072;28;20747;-67
2020/12/11 05:16:12;;;;;;;35.93;19.83;;;;;;;2.35;65.78;95129.16;5073285;28;21145;-67
2020/12/11 05:18:41;;;;;;;31.57;18.13;;;;;;;2.37;65.42;95129.81;5075122;28;20424;-66
2020/12/11 05:21:33;;;;;;;35.10;19.40;;;;;;;2.28;65.50;95140.06;5074950;28;20436;-66
2020/12/11 05:24:04;;;;;;;37.50;20.33;;;;;;;2.18;65.65;95130.81;5072463;28;20459;-66
2020/12/11 05:26:32;;;;;;;34.17;19.50;;;;;;;1.92;66.13;95123.84;5072137;28;20425;-66
2020/12/11 05:28:59;;;;;;;33.97;20.10;;;;;;;2.01;65.99;95133.28;5068545;28;20434;-67
2020/12/11 05:31:25;;;;;;;32.40;18.37;;;;;;;2.22;65.68;95130.38;5070733;28;20459;-66
2020/12/11 05:34:03;;;;;;;33.97;19.50;;;;;;;2.01;65.58;95132.47;5072592;28;20424;-68
2020/12/11 05:36:41;;;;;;;32.70;19.13;;;;;;;2.08;65.63;95139.44;5070549;28;20460;-66
2020/12/11 05:39:07;;;;;;;34.40;19.40;;;;;;;1.98;65.94;95133.56;5079454;28;20423;-67
2020/12/11 05:41:34;;;;;;;36.80;19.77;;;;;;;1.86;65.92;95134.75;5080333;28;20452;-67
2020/12/11 05:43:59;;;;;;;34.20;19.20;;;;;;;1.97;66.13;95131.94;5072285;28;20437;-66
2020/12/11 05:46:30;;;;;;;33.10;19.80;;;;;;;2.08;65.77;95138.66;5072631;28;20942;-67
2020/12/11 05:48:57;;;;;;;31.50;18.00;;;;;;;2.13;65.82;95132.06;5073263;28;20614;-65
2020/12/11 05:51:25;;;;;;;35.60;18.77;;;;;;;2.22;65.29;95130.38;5071060;28;20440;-67
2020/12/11 05:53:56;;;;;;;31.13;18.97;;;;;;;2.18;65.16;95118.69;5071084;28;20515;-66
2020/12/11 05:56:22;;;;;;;33.17;19.47;;;;;;;2.10;65.24;95116.06;5071702;28;20452;-67
2020/12/11 05:58:50;;;;;;;34.73;17.83;;;;;;;1.81;65.96;95128.28;5067053;28;20428;-68
2020/12/11 06:01:21;;;;;;;33.60;18.87;;;;;;;2.12;65.56;95124.47;5071751;28;20206;-68
2020/12/11 06:03:46;;;;;;;33.40;19.10;;;;;;;2.12;65.47;95116.72;5070258;28;20433;-67
2020/12/11 06:06:17;;;;;;;37.80;17.67;;;;;;;2.15;65.24;95122.41;5054986;28;20783;-66
2020/12/11 06:08:46;;;;;;;31.67;18.50;;;;;;;2.01;65.02;95122.13;5069630;28;20179;-66
2020/12/11 06:11:21;;;;;;;32.00;18.70;;;;;;;1.94;65.36;95127.09;5056789;28;20453;-67
2020/12/11 06:13:50;;;;;;;30.63;17.70;;;;;;;1.86;66.30;95120.09;5071480;28;20930;-67
2020/12/11 06:16:16;;;;;;;31.17;18.27;;;;;;;1.91;65.82;95119.63;5072843;28;20955;-66
2020/12/11 06:18:43;;;;;;;32.67;18.57;;;;;;;1.97;65.77;95119.03;5073026;28;20945;-66
2020/12/11 06:21:09;;;;;;;30.73;17.90;;;;;;;1.96;65.95;95115.63;5055869;28;20436;-66
2020/12/11 06:23:39;;;;;;;35.47;19.03;;;;;;;1.94;66.20;95103.84;5072112;28;20468;-67
2020/12/11 06:26:05;;;;;;;36.00;18.90;;;;;;;1.77;66.83;95095.13;5073583;28;20943;-66
2020/12/11 06:28:43;;;;;;;36.23;19.00;;;;;;;1.63;66.39;95084.41;5072271;28;20436;-66
2020/12/11 06:31:12;;;;;;;33.63;18.50;;;;;;;1.61;67.25;95081.16;5055926;28;20436;-65
2020/12/11 06:33:40;;;;;;;32.83;19.10;;;;;;;1.73;66.86;95075.75;5071367;28;20481;-64
2020/12/11 06:36:06;;;;;;;35.47;19.00;;;;;;;1.56;67.17;95072.22;5072427;28;20563;-66
2020/12/11 06:38:41;;;;;;;36.93;18.70;;;;;;;1.50;67.36;95065.88;5071432;28;20439;-66
2020/12/11 06:41:07;;;;;;;34.97;18.83;;;;;;;1.48;67.23;95066.00;5071609;28;20495;-64
2020/12/11 06:43:45;;;;;;;34.30;17.43;;;;;;;1.55;66.76;95068.81;5071405;28;20425;-66
2020/12/11 06:46:18;;;;;;;35.83;19.40;;;;;;;1.79;66.39;95072.53;5056415;28;20433;-65
2020/12/11 06:49:08;;;;;;;36.37;19.13;;;;;;;1.84;66.15;95075.50;5074642;28;20478;-65
2020/12/11 06:51:54;;;;;;;34.40;19.30;;;;;;;2.01;65.76;95071.25;5075574;28;20506;-67
2020/12/11 06:54:23;;;;;;;32.30;17.77;;;;;;;1.87;65.62;95071.81;5068337;28;20542;-66
2020/12/11 06:56:50;;;;;;;32.97;18.13;;;;;;;1.77;66.10;95075.28;5074756;28;20416;-66
2020/12/11 06:59:27;;;;;;;31.90;17.77;;;;;;;1.92;65.35;95067.81;5065560;28;20500;-67
2020/12/11 07:01:54;;;;;;;30.53;18.03;;;;;;;1.91;65.21;95076.50;5076025;28;20432;-67
2020/12/11 07:04:19;;;;;;;32.90;17.60;;;;;;;1.84;65.77;95067.75;5076061;28;21002;-66
2020/12/11 07:06:48;;;;;;;28.70;17.33;;;;;;;2.05;65.13;95051.09;5075760;28;20448;-66
2020/12/11 07:09:15;;;;;;;32.17;17.97;;;;;;;2.05;64.49;95051.09;5064146;28;20214;-65
2020/12/11 07:11:42;;;;;;;30.40;16.53;;;;;;;1.94;65.19;95055.56;5075474;28;20460;-65
2020/12/11 07:14:08;;;;;;;29.80;18.20;;;;;;;1.87;65.12;95046.78;5072922;28;20463;-66
2020/12/11 07:16:38;;;;;;;26.80;17.00;;;;;;;1.80;65.44;95043.19;5071401;28;20460;-66
2020/12/11 07:19:04;;;;;;;29.87;17.10;;;;;;;1.68;65.71;95040.84;5075866;28;20681;-66
2020/12/11 07:21:32;;;;;;;37.70;18.73;;;;;;;1.60;66.00;95043.38;5075188;28;20470;-66
2020/12/11 07:23:58;;;;;;;29.97;16.60;;;;;;;1.66;66.17;95047.13;5076231;28;20424;-66
2020/12/11 07:26:23;;;;;;;29.47;16.50;;;;;;;1.82;65.39;95030.94;5077215;28;20417;-65
2020/12/11 07:29:07;;;;;;;30.70;17.33;;;;;;;1.95;65.14;95028.75;5077258;28;20424;-67
2020/12/11 07:31:38;;;;;;;31.43;17.20;;;;;;;1.91;64.64;95017.09;5075983;28;20237;-66
2020/12/11 07:34:14;;;;;;;27.07;16.70;;;;;;;1.84;64.79;95008.34;5078753;28;20479;-66
2020/12/11 07:36:40;;;;;;;28.93;15.83;;;;;;;1.95;65.13;95010.66;5076061;28;20539;-67
2020/12/11 07:39:14;;;;;;;29.57;16.93;;;;;;;1.88;65.10;95009.69;5072950;28;20425;-66
2020/12/11 07:41:44;;;;;;;28.23;16.47;;;;;;;2.19;64.56;95005.81;5078849;28;20539;-66
2020/12/11 07:44:19;;;;;;;29.90;18.00;;;;;;;2.25;64.08;95003.41;5080011;28;20413;-67
2020/12/11 07:46:44;;;;;;;32.60;18.53;;;;;;;2.28;64.00;95004.88;5070138;28;20424;-63
2020/12/11 07:49:10;;;;;;;25.77;15.70;;;;;;;2.15;63.88;95007.84;5079625;28;20424;-64
2020/12/11 07:51:52;;;;;;;30.13;17.47;;;;;;;2.24;64.17;95008.72;5060163;28;20209;-65
2020/12/11 07:54:18;;;;;;;32.37;16.80;;;;;;;2.05;64.88;95005.41;5074892;28;20213;-66
2020/12/11 07:56:44;;;;;;;30.00;17.40;;;;;;;2.20;64.47;95008.22;5074050;28;20434;-65
2020/12/11 07:59:14;;;;;;;28.10;16.97;;;;;;;2.39;63.90;95011.56;5074787;28;20425;-65
2020/12/11 08:01:47;;;;;;;30.73;17.57;;;;;;;2.36;63.58;95007.47;5075569;28;20214;-65
2020/12/11 08:04:16;;;;;;;29.83;16.10;;;;;;;2.50;63.44;95002.69;5058254;28;20420;-67
2020/12/11 08:06:58;;;;;;;28.57;16.03;;;;;;;2.41;63.16;94999.25;5065628;28;20431;-66
2020/12/11 08:09:31;;;;;;;26.83;15.80;;;;;;;2.44;62.99;94989.44;5060114;28;20486;-66
2020/12/11 08:12:29;;;;;;;27.27;15.83;;;;;;;2.59;62.83;94987.06;5072179;28;20513;-66
2020/12/11 08:14:55;;;;;;;25.40;14.37;;;;;;;2.43;62.49;94997.31;5070357;28;21037;-66
2020/12/11 08:17:21;;;;;;;29.13;16.83;;;;;;;2.56;62.57;94995.13;5050293;28;20430;-66
2020/12/11 08:19:57;;;;;;;26.60;16.13;;;;;;;2.49;63.05;94991.53;5061085;28;20194;-65
2020/12/11 08:22:39;;;;;;;27.50;16.27;;;;;;;2.46;63.13;94991.84;5055493;28;20452;-65
2020/12/11 08:25:21;;;;;;;29.43;17.00;;;;;;;1.97;64.62;95002.75;5072038;28;20444;-64
2020/12/11 08:27:47;;;;;;;26.60;15.13;;;;;;;2.20;64.31;95004.84;5070501;28;20428;-65
2020/12/11 08:30:14;;;;;;;26.43;15.60;;;;;;;2.47;63.51;94998.66;5054917;28;20499;-64
2020/12/11 08:32:40;;;;;;;27.63;15.20;;;;;;;2.78;62.92;95012.81;5071357;28;20268;-65
2020/12/11 08:35:20;;;;;;;31.33;17.00;;;;;;;2.59;63.45;95012.91;5061384;28;21104;-64
2020/12/11 08:37:50;;;;;;;27.87;16.43;;;;;;;3.08;62.69;95001.06;5035072;28;20515;-65
2020/12/11 08:40:17;;;;;;;24.63;15.83;;;;;;;3.30;61.09;94999.63;5050501;28;20425;-65
2020/12/11 08:48:57;;;;;;;26.03;15.47;;;;;;;3.43;59.91;94993.97;5070797;28;20466;-64
2020/12/11 08:51:09;;;;;;;26.97;15.90;;;;;;;3.47;59.61;94984.91;5071013;28;20757;-64
2020/12/11 08:53:47;;;;;;;24.90;15.00;;;;;;;3.51;59.76;94991.41;5072501;28;20508;-65
2020/12/11 08:56:13;;;;;;;27.67;15.67;;;;;;;3.26;60.48;94977.63;5058162;28;20285;-65
2020/12/11 08:58:39;;;;;;;22.60;14.23;;;;;;;3.64;60.25;94974.56;5073792;28;20479;-65
2020/12/11 09:01:05;;;;;;;25.87;15.63;;;;;;;3.89;59.06;94966.75;5076584;28;20211;-65
2020/12/11 09:03:30;;;;;;;24.30;14.30;;;;;;;4.09;58.89;94967.97;5078591;28;20182;-65
2020/12/11 09:05:56;;;;;;;24.57;14.13;;;;;;;4.01;58.41;94965.41;5076090;28;20185;-65
2020/12/11 09:08:22;;;;;;;23.87;15.10;;;;;;;4.17;58.25;94963.72;5067939;28;20205;-65
2020/12/11 09:10:48;;;;;;;22.17;14.13;;;;;;;4.27;57.68;94974.72;5069665;28;20467;-66
2020/12/11 09:13:13;;;;;;;21.43;14.17;;;;;;;3.86;59.10;94961.88;5067045;28;20296;-66
2020/12/11 09:15:39;;;;;;;24.60;14.23;;;;;;;3.99;58.67;94972.53;5072701;28;20226;-66
2020/12/11 09:18:05;;;;;;;23.00;13.87;;;;;;;4.32;58.47;94976.81;5071248;28;20178;-66
2020/12/11 09:20:31;;;;;;;20.37;13.60;;;;;;;4.24;58.88;94972.47;5073111;28;20222;-66
2020/12/11 09:22:57;;;;;;;23.00;14.40;;;;;;;4.16;58.75;94975.88;5072608;28;20191;-65
2020/12/11 09:25:23;;;;;;;20.73;13.70;;;;;;;4.27;58.31;94979.91;5073043;28;20431;-67
2020/12/11 09:27:49;;;;;;;24.33;13.70;;;;;;;3.84;59.35;94978.41;5071407;28;20433;-67
2020/12/11 09:32:55;;;;;;;17.73;12.03;;;;;;;4.21;58.59;94981.41;5069952;28;20459;-66
2020/12/11 09:35:24;;;;;;;21.27;13.20;;;;;;;4.17;58.71;94981.88;5073102;28;20883;-66
2020/12/11 09:37:50;;;;;;;20.27;13.00;;;;;;;4.46;58.40;94976.91;5067503;28;20782;-66
2020/12/11 09:40:44;;;;;;;20.27;13.03;;;;;;;4.41;58.51;94975.81;5073861;28;20432;-66
2020/12/11 09:50:55;;;;;;;19.53;11.80;;;;;;;4.49;58.28;94964.59;5061660;28;20528;-66
2020/12/11 09:53:42;;;;;;;20.60;12.97;;;;;;;4.65;58.32;94966.28;5039985;28;20528;-66
2020/12/11 09:56:08;;;;;;;19.90;12.70;;;;;;;4.81;58.11;94960.19;5071438;28;20468;-67
2020/12/11 09:58:35;;;;;;;21.70;14.20;;;;;;;4.88;57.59;94958.56;5071525;28;20428;-66
2020/12/11 10:01:04;;;;;;;18.70;12.80;;;;;;;4.68;58.40;94953.78;5071850;28;20647;-66
2020/12/11 10:03:34;;;;;;;19.30;12.70;;;;;;;5.07;56.87;94942.50;5071792;28;20420;-66
2020/12/11 10:06:00;;;;;;;20.07;12.83;;;;;;;5.11;56.62;94940.38;5071944;28;20459;-66
2020/12/11 10:08:26;;;;;;;20.67;13.57;;;;;;;4.64;57.76;94942.16;5065941;28;20456;-65
2020/12/11 10:10:52;;;;;;;21.53;13.80;;;;;;;4.92;57.61;94931.25;5060379;28;20624;-65
2020/12/11 10:13:18;;;;;;;19.23;11.70;;;;;;;5.04;57.22;94922.06;5051243;28;20702;-66
2020/12/11 10:15:44;;;;;;;17.10;11.80;;;;;;;5.36;56.59;94943.59;5052420;28;20519;-66
2020/12/11 10:18:10;;;;;;;19.40;13.30;;;;;;;5.26;56.57;94935.25;5054775;28;20275;-66
2020/12/11 10:20:36;;;;;;;20.03;13.77;;;;;;;5.33;56.90;94925.75;5072028;28;20828;-65
2020/12/11 10:23:01;;;;;;;18.47;12.57;;;;;;;5.49;56.00;94921.41;5071479;28;20190;-65
2020/12/11 10:25:27;;;;;;;18.77;12.33;;;;;;;5.60;56.37;94907.19;5072931;28;20210;-65
2020/12/11 10:27:54;;;;;;;20.27;13.50;;;;;;;5.58;56.31;94919.53;5071701;28;20185;-67
2020/12/11 10:30:20;;;;;;;23.23;13.87;;;;;;;5.63;56.79;94915.44;5072164;28;20202;-65
2020/12/11 10:32:45;;;;;;;23.27;14.70;;;;;;;5.77;56.13;94919.03;5070456;28;20793;-66
2020/12/11 10:35:11;;;;;;;20.60;13.03;;;;;;;5.68;56.23;94910.50;5072306;28;20202;-66
2020/12/11 10:37:37;;;;;;;21.20;12.83;;;;;;;5.38;56.91;94904.44;5068643;28;20183;-66
2020/12/11 10:40:04;;;;;;;18.87;12.77;;;;;;;5.63;56.69;94902.44;5069023;28;20698;-66
2020/12/11 10:42:30;;;;;;;21.43;12.73;;;;;;;5.45;57.21;94917.53;5071400;28;20210;-66
2020/12/11 10:44:55;;;;;;;20.00;13.30;;;;;;;5.58;57.32;94909.16;5051322;28;20775;-66
2020/12/11 10:47:21;;;;;;;22.57;12.80;;;;;;;5.68;56.98;94900.09;5062739;28;20613;-65
2020/12/11 10:49:47;;;;;;;22.27;13.17;;;;;;;5.42;57.97;94900.53;5072185;28;20190;-66
2020/12/11 10:52:14;;;;;;;19.50;13.17;;;;;;;5.76;56.56;94895.81;5070887;28;20201;-64
2020/12/11 10:54:40;;;;;;;20.93;13.37;;;;;;;5.90;56.44;94883.78;5072712;28;20532;-65
2020/12/11 10:57:06;;;;;;;20.77;12.90;;;;;;;5.80;56.55;94884.06;5069735;28;20427;-67
2020/12/11 10:59:32;;;;;;;20.13;13.57;;;;;;;5.85;55.94;94879.13;5055317;28;20850;-64
2020/12/11 11:01:58;;;;;;;23.83;14.17;;;;;;;5.39;58.55;94874.91;5052953;28;20321;-66
2020/12/11 11:04:24;;;;;;;21.13;13.07;;;;;;;5.74;57.61;94872.59;5070788;28;20515;-65
2020/12/11 11:11:49;;;;;;;18.17;12.53;;;;;;;5.68;57.68;94858.50;5071954;28;20478;-65
2020/12/11 11:27:41;;;;;;;16.93;11.83;;;;;;;5.99;57.53;94831.56;5070934;28;20918;-65
2020/12/11 11:30:07;;;;;;;18.07;11.70;;;;;;;6.03;57.21;94823.41;5072474;28;20439;-65
2020/12/11 11:32:34;;;;;;;21.13;12.90;;;;;;;5.78;58.03;94815.88;5071040;28;20483;-67
2020/12/11 11:35:00;;;;;;;16.20;11.33;;;;;;;5.81;57.84;94811.13;5069781;28;20272;-67
2020/12/11 11:37:27;;;;;;;17.63;12.10;;;;;;;5.78;58.09;94815.88;5068955;28;20432;-65
2020/12/11 11:39:53;;;;;;;17.63;12.00;;;;;;;5.82;57.53;94797.13;5071093;28;20186;-65
2020/12/11 11:42:18;;;;;;;17.00;11.07;;;;;;;5.52;58.08;94791.16;5072444;28;20475;-65
2020/12/11 11:44:54;;;;;;;16.33;11.97;;;;;;;5.82;57.21;94791.94;5074612;28;20198;-64
2020/12/11 11:47:21;;;;;;;18.50;12.57;;;;;;;5.63;58.23;94792.47;5065079;28;20191;-64
2020/12/11 11:54:59;;;;;;;17.47;12.13;;;;;;;5.48;57.25;94782.09;5074267;28;20783;-64
2020/12/11 11:57:26;;;;;;;16.63;11.57;;;;;;;5.72;57.34;94782.81;5072784;28;20435;-65
2020/12/11 11:59:52;;;;;;;19.70;13.20;;;;;;;5.36;57.63;94774.75;5073660;28;20537;-65
2020/12/11 12:02:18;;;;;;;16.47;11.77;;;;;;;5.95;56.90;94772.28;5073373;28;20460;-64
2020/12/11 12:04:43;;;;;;;20.20;13.63;;;;;;;5.61;57.75;94779.69;5074411;28;20194;-63
2020/12/11 12:07:09;;;;;;;19.10;12.93;;;;;;;5.77;56.63;94780.47;5074140;28;20738;-64